Time;durP1;ratioP1;P1;durP2;ratioP2;P2;SDS_P1;SDS_P2;PMS_P1;PMS_P2;Temp;Humidity;BMP_temperature;BMP_pressure;BME280_temperature;BME280_humidity;BME280_pressure;Samples;Min_cycle;Max_cycle;Signal;HPM_P1;HPM_P2
2022/02/20 00:00:51;;;;;;;;;;;;;;;15.22;39.04;100101.59;4939421;28;98306;-64
2022/02/20 00:03:20;;;;;;;;;;;;;;;15.23;38.99;100091.53;4934246;28;98315;-64
2022/02/20 00:05:46;;;;;;;;;;;;;;;15.25;39.00;100088.50;4920137;28;98249;-69
2022/02/20 00:08:12;;;;;;;;;;;;;;;15.23;38.76;100092.34;4932916;28;97899;-64
2022/02/20 00:10:38;;;;;;;;;;;;;;;15.24;38.77;100082.28;4939516;28;98172;-64
2022/02/20 00:13:04;;;;;;;;;;;;;;;15.23;39.28;100088.84;4937810;28;122128;-68
2022/02/20 00:15:31;;;;;;;;;;;;;;;15.22;38.86;100090.75;4924216;28;112067;-64
2022/02/20 00:17:57;;;;;;;;;;;;;;;15.20;39.18;100065.81;4921439;28;97970;-64
2022/02/20 00:20:26;;;;;;;;;;;;;;;15.19;39.03;100060.69;4902957;28;97922;-68
2022/02/20 00:22:54;;;;;;;;;;;;;;;15.18;39.03;100067.25;4925109;28;126445;-68
2022/02/20 00:25:20;;;;;;;;;;;;;;;15.17;38.94;100081.94;4922095;28;98998;-68
2022/02/20 00:27:47;;;;;;;;;;;;;;;15.13;39.26;100065.44;4920007;28;105794;-64
2022/02/20 00:30:13;;;;;;;;;;;;;;;15.12;38.90;100063.81;4919820;28;98139;-64
2022/02/20 00:32:39;;;;;;;;;;;;;;;15.09;38.96;100064.47;4919243;28;127322;-64
2022/02/20 00:35:07;;;;;;;;;;;;;;;15.10;38.92;100065.25;4931521;28;127563;-68
2022/02/20 00:37:32;;;;;;;;;;;;;;;15.08;39.01;100045.75;4939453;28;98007;-64
2022/02/20 00:39:58;;;;;;;;;;;;;;;15.07;39.17;100057.72;4939061;28;117583;-68
2022/02/20 00:42:24;;;;;;;;;;;;;;;15.06;39.60;100056.94;4931660;28;127677;-64
2022/02/20 00:44:50;;;;;;;;;;;;;;;15.04;39.15;100056.41;4922267;28;126900;-64
2022/02/20 00:47:16;;;;;;;;;;;;;;;15.03;39.19;100046.69;4922946;28;126682;-69
2022/02/20 00:49:42;;;;;;;;;;;;;;;15.02;39.43;100050.50;4918781;28;117020;-68
2022/02/20 00:52:08;;;;;;;;;;;;;;;15.01;39.73;100046.16;4920337;28;126624;-68
2022/02/20 00:54:34;;;;;;;;;;;;;;;14.98;39.71;100028.59;4917609;28;128732;-68
2022/02/20 00:57:00;;;;;;;;;;;;;;;14.98;39.95;100034.03;4920170;28;127722;-64
2022/02/20 00:59:26;;;;;;;;;;;;;;;14.98;39.79;100014.25;4921978;28;116233;-67
2022/02/20 01:01:51;;;;;;;;;;;;;;;14.95;39.99;100009.41;4921779;28;127485;-64
2022/02/20 01:04:17;;;;;;;;;;;;;;;14.94;39.97;100011.34;4921959;28;128152;-68
2022/02/20 01:06:43;;;;;;;;;;;;;;;14.93;40.38;100007.03;4920510;28;128970;-68
2022/02/20 01:09:09;;;;;;;;;;;;;;;14.92;39.85;99993.75;4932896;28;117979;-64
2022/02/20 01:11:35;;;;;;;;;;;;;;;14.92;40.08;99997.25;4920343;28;127480;-67
2022/02/20 01:14:01;;;;;;;;;;;;;;;14.90;40.35;99985.91;4922568;28;128755;-68
2022/02/20 01:16:27;;;;;;;;;;;;;;;14.89;40.31;99981.59;4922551;28;128486;-64
2022/02/20 01:18:53;;;;;;;;;;;;;;;14.88;40.47;99966.41;4932516;28;118041;-64
2022/02/20 01:21:19;;;;;;;;;;;;;;;14.88;41.10;99957.47;4941214;28;129218;-68
2022/02/20 01:23:45;;;;;;;;;;;;;;;14.86;40.61;99944.22;4931257;28;126118;-64
2022/02/20 01:26:10;;;;;;;;;;;;;;;14.85;40.70;99942.59;4921573;28;127606;-68
2022/02/20 01:28:36;;;;;;;;;;;;;;;14.85;40.99;99936.38;4922871;28;116803;-64
2022/02/20 01:31:02;;;;;;;;;;;;;;;14.84;40.91;99929.38;4919450;28;126956;-67
2022/02/20 01:33:28;;;;;;;;;;;;;;;14.83;41.22;99927.75;4922833;28;98388;-64
2022/02/20 01:35:55;;;;;;;;;;;;;;;14.81;41.44;99917.19;4920456;28;124993;-68
2022/02/20 01:38:21;;;;;;;;;;;;;;;14.81;41.20;99911.78;4922482;28;98095;-68
2022/02/20 01:40:47;;;;;;;;;;;;;;;14.81;41.53;99908.25;4920661;28;128188;-68
2022/02/20 01:43:13;;;;;;;;;;;;;;;14.80;41.57;99901.25;4926103;28;98505;-68
2022/02/20 01:45:40;;;;;;;;;;;;;;;14.79;41.53;99899.66;4937572;28;98121;-68
2022/02/20 01:48:06;;;;;;;;;;;;;;;14.78;41.32;99896.13;4926447;28;98016;-67
2022/02/20 01:50:32;;;;;;;;;;;;;;;14.79;41.76;99899.66;4938233;28;128380;-64
2022/02/20 01:52:58;;;;;;;;;;;;;;;14.78;41.80;99889.91;4939413;28;121938;-68
2022/02/20 01:55:23;;;;;;;;;;;;;;;14.77;41.89;99886.38;4920971;28;127664;-68
2022/02/20 01:57:49;;;;;;;;;;;;;;;14.77;41.53;99886.38;4920107;28;109617;-69
2022/02/20 02:00:16;;;;;;;;;;;;;;;14.75;41.39;99882.38;4920242;28;127377;-68
2022/02/20 02:02:42;;;;;;;;;;;;;;;14.73;41.93;99874.53;4931521;28;105034;-64
2022/02/20 02:05:09;;;;;;;;;;;;;;;14.71;41.96;99869.44;4937486;28;98866;-64
2022/02/20 02:07:35;;;;;;;;;;;;;;;14.71;41.77;99868.63;4939472;28;97892;-64
2022/02/20 02:10:00;;;;;;;;;;;;;;;14.69;42.05;99868.13;4940138;28;128023;-64
2022/02/20 02:12:26;;;;;;;;;;;;;;;14.68;41.79;99861.91;4940764;28;121086;-68
2022/02/20 02:15:00;;;;;;;;;;;;;;;14.66;41.88;99852.50;4920999;28;106074;-64
2022/02/20 02:17:26;;;;;;;;;;;;;;;14.64;42.30;99847.38;4941965;28;97945;-68
2022/02/20 02:19:52;;;;;;;;;;;;;;;14.65;42.09;99850.88;4928786;28;104858;-68
2022/02/20 02:22:22;;;;;;;;;;;;;;;14.62;42.09;99837.91;4941774;28;98199;-64
2022/02/20 02:24:48;;;;;;;;;;;;;;;14.61;42.33;99823.56;4940450;28;110887;-64
2022/02/20 02:27:14;;;;;;;;;;;;;;;14.61;42.52;99825.47;4940897;28;97844;-64
2022/02/20 02:29:40;;;;;;;;;;;;;;;14.61;42.51;99829.00;4940973;28;98246;-64
2022/02/20 02:32:07;;;;;;;;;;;;;;;14.59;42.48;99819.56;4940924;28;105123;-68
2022/02/20 02:34:32;;;;;;;;;;;;;;;14.59;42.41;99816.88;4924737;28;99301;-68
2022/02/20 02:36:58;;;;;;;;;;;;;;;14.58;42.42;99816.06;4921366;28;117830;-68
2022/02/20 02:39:24;;;;;;;;;;;;;;;14.57;42.27;99806.31;4921889;28;126043;-68
2022/02/20 02:41:50;;;;;;;;;;;;;;;14.58;42.38;99804.41;4929258;28;127857;-68
2022/02/20 02:44:16;;;;;;;;;;;;;;;14.56;42.47;99798.50;4940105;28;126560;-64
2022/02/20 02:46:42;;;;;;;;;;;;;;;14.56;42.97;99793.06;4938496;28;111724;-68
2022/02/20 02:49:09;;;;;;;;;;;;;;;14.55;42.61;99786.84;4939280;28;98240;-64
2022/02/20 02:51:36;;;;;;;;;;;;;;;14.55;42.69;99783.34;4939291;28;99022;-68
2022/02/20 02:54:09;;;;;;;;;;;;;;;14.55;43.00;99780.63;4941608;28;97893;-66
2022/02/20 02:56:35;;;;;;;;;;;;;;;14.54;42.88;99770.88;4938583;28;105431;-68
2022/02/20 02:59:01;;;;;;;;;;;;;;;14.55;43.13;99772.50;4940325;28;127917;-67
2022/02/20 03:01:26;;;;;;;;;;;;;;;14.53;42.96;99763.84;4934611;28;128670;-68
2022/02/20 03:03:52;;;;;;;;;;;;;;;14.54;43.00;99757.31;4919742;28;126271;-68
2022/02/20 03:06:18;;;;;;;;;;;;;;;14.52;42.86;99748.69;4921417;28;98143;-68
2022/02/20 03:08:44;;;;;;;;;;;;;;;14.53;42.85;99744.88;4923658;28;109452;-64
2022/02/20 03:11:10;;;;;;;;;;;;;;;14.53;43.33;99737.53;4937530;28;126546;-64
2022/02/20 03:13:37;;;;;;;;;;;;;;;14.54;43.00;99732.91;4921474;28;128486;-68
2022/02/20 03:16:03;;;;;;;;;;;;;;;14.52;43.29;99732.44;4940717;28;97864;-68
2022/02/20 03:18:31;;;;;;;;;;;;;;;14.52;43.12;99727.00;4916586;28;125973;-64
2022/02/20 03:20:58;;;;;;;;;;;;;;;14.53;43.29;99723.19;4930307;28;98886;-64
2022/02/20 03:23:24;;;;;;;;;;;;;;;14.52;43.32;99722.38;4940634;28;97840;-64
2022/02/20 03:25:49;;;;;;;;;;;;;;;14.52;43.37;99719.66;4937584;28;117724;-68
2022/02/20 03:28:16;;;;;;;;;;;;;;;14.52;43.53;99708.03;4940411;28;111350;-68
2022/02/20 03:30:41;;;;;;;;;;;;;;;14.52;43.54;99714.25;4940650;28;98714;-68
2022/02/20 03:33:07;;;;;;;;;;;;;;;14.51;43.47;99701.81;4938665;28;127216;-68
2022/02/20 03:35:33;;;;;;;;;;;;;;;14.52;43.19;99718.88;4939498;28;117703;-65
2022/02/20 03:37:59;;;;;;;;;;;;;;;14.51;43.54;99701.00;4935702;28;127883;-64
2022/02/20 03:40:25;;;;;;;;;;;;;;;14.51;43.60;99715.38;4901093;28;129656;-64
2022/02/20 03:42:51;;;;;;;;;;;;;;;14.50;43.68;99702.91;4901827;28;128560;-64
2022/02/20 03:45:17;;;;;;;;;;;;;;;14.49;43.33;99704.03;4917792;28;117287;-64
2022/02/20 03:47:43;;;;;;;;;;;;;;;14.48;43.67;99705.91;4929677;28;128324;-68
2022/02/20 03:50:09;;;;;;;;;;;;;;;14.48;43.55;99702.41;4938966;28;100966;-67
2022/02/20 03:52:35;;;;;;;;;;;;;;;14.47;43.36;99689.97;4939579;28;117593;-64
2022/02/20 03:55:02;;;;;;;;;;;;;;;14.47;43.68;99703.50;4939196;28;97954;-68
2022/02/20 03:57:32;;;;;;;;;;;;;;;14.46;43.53;99694.59;4940715;28;99245;-64
2022/02/20 03:59:59;;;;;;;;;;;;;;;14.45;43.65;99686.75;4937799;28;98823;-68
2022/02/20 04:02:27;;;;;;;;;;;;;;;14.46;43.83;99682.91;4940389;28;97813;-67
2022/02/20 04:04:53;;;;;;;;;;;;;;;14.45;43.97;99684.81;4928446;28;98313;-68
2022/02/20 04:07:19;;;;;;;;;;;;;;;14.44;43.61;99672.38;4917377;28;126444;-64
2022/02/20 04:09:45;;;;;;;;;;;;;;;14.43;43.90;99678.94;4918843;28;126965;-68
2022/02/20 04:12:11;;;;;;;;;;;;;;;14.45;43.82;99690.25;4916899;28;127627;-64
2022/02/20 04:14:37;;;;;;;;;;;;;;;14.45;43.67;99681.31;4885284;28;117975;-68
2022/02/20 04:17:03;;;;;;;;;;;;;;;14.44;44.01;99677.81;4920148;28;128179;-64
2022/02/20 04:19:29;;;;;;;;;;;;;;;14.45;44.01;99681.31;4920502;28;126712;-68
2022/02/20 04:21:55;;;;;;;;;;;;;;;14.44;43.90;99683.22;4918937;28;127771;-68
2022/02/20 04:24:21;;;;;;;;;;;;;;;14.44;43.82;99672.38;4930335;28;98017;-68
2022/02/20 04:26:47;;;;;;;;;;;;;;;14.44;44.43;99675.09;4918238;28;127884;-68
2022/02/20 04:29:13;;;;;;;;;;;;;;;14.45;43.97;99684.03;4934044;28;127465;-64
2022/02/20 04:31:39;;;;;;;;;;;;;;;14.43;43.98;99672.72;4935368;28;120226;-64
2022/02/20 04:34:04;;;;;;;;;;;;;;;14.44;44.17;99680.53;4920471;28;113795;-64
2022/02/20 04:36:34;;;;;;;;;;;;;;;14.45;43.97;99681.31;4922637;28;125967;-68
2022/02/20 04:39:01;;;;;;;;;;;;;;;14.44;43.95;99691.38;4939080;28;99117;-64
2022/02/20 04:41:28;;;;;;;;;;;;;;;14.45;44.21;99694.88;4939874;28;98114;-65
2022/02/20 04:43:54;;;;;;;;;;;;;;;14.44;44.06;99704.13;4925951;28;116697;-68
2022/02/20 04:46:20;;;;;;;;;;;;;;;14.44;44.39;99704.94;4885283;28;109118;-64
2022/02/20 04:48:46;;;;;;;;;;;;;;;14.45;44.45;99706.53;4884361;28;124997;-64
2022/02/20 04:51:12;;;;;;;;;;;;;;;14.45;44.52;99703.00;4917169;28;127771;-64
2022/02/20 04:53:38;;;;;;;;;;;;;;;14.45;44.21;99711.16;4919297;28;117756;-65
2022/02/20 04:56:04;;;;;;;;;;;;;;;14.45;44.60;99714.66;4917855;28;127458;-68
2022/02/20 04:58:30;;;;;;;;;;;;;;;14.45;44.53;99716.56;4917831;28;98344;-68
2022/02/20 05:00:56;;;;;;;;;;;;;;;14.45;44.71;99719.28;4934680;28;98612;-64
2022/02/20 05:03:22;;;;;;;;;;;;;;;14.46;44.53;99721.69;4936736;28;117597;-68
2022/02/20 05:05:48;;;;;;;;;;;;;;;14.46;44.53;99723.59;4936235;28;128307;-64
2022/02/20 05:08:14;;;;;;;;;;;;;;;14.46;44.71;99739.84;4938009;28;122182;-64
2022/02/20 05:10:40;;;;;;;;;;;;;;;14.45;44.41;99736.34;4937323;28;126733;-64
2022/02/20 05:13:06;;;;;;;;;;;;;;;14.46;44.91;99739.84;4937756;28;116870;-68
2022/02/20 05:15:32;;;;;;;;;;;;;;;14.46;44.82;99732.53;4936840;28;128187;-68
2022/02/20 05:17:58;;;;;;;;;;;;;;;14.46;44.55;99739.84;4936884;28;128398;-68
2022/02/20 05:20:24;;;;;;;;;;;;;;;14.46;44.52;99737.13;4936857;28;128115;-64
2022/02/20 05:22:50;;;;;;;;;;;;;;;14.45;44.63;99740.97;4936353;28;117882;-64
2022/02/20 05:25:17;;;;;;;;;;;;;;;14.45;44.96;99725.50;4937405;28;126313;-68
2022/02/20 05:27:43;;;;;;;;;;;;;;;14.45;45.04;99730.91;4925968;28;98466;-68
2022/02/20 05:30:12;;;;;;;;;;;;;;;14.45;44.89;99744.47;4922648;28;98093;-68
2022/02/20 05:32:38;;;;;;;;;;;;;;;14.46;45.01;99748.81;4923125;28;98867;-68
2022/02/20 05:35:06;;;;;;;;;;;;;;;14.46;44.78;99750.69;4921488;28;126941;-67
2022/02/20 05:37:39;;;;;;;;;;;;;;;14.45;45.17;99744.47;4922427;28;98641;-63
2022/02/20 05:40:05;;;;;;;;;;;;;;;14.46;45.14;99745.28;4922809;28;124130;-64
2022/02/20 05:42:31;;;;;;;;;;;;;;;14.46;45.07;99753.41;4922295;28;106701;-64
2022/02/20 05:44:57;;;;;;;;;;;;;;;14.46;45.09;99754.22;4921402;28;128336;-64
2022/02/20 05:47:23;;;;;;;;;;;;;;;14.46;45.17;99756.94;4921565;28;127155;-68
2022/02/20 05:49:49;;;;;;;;;;;;;;;14.47;45.30;99760.47;4923498;28;126866;-64
2022/02/20 05:52:15;;;;;;;;;;;;;;;14.47;45.41;99768.59;4921875;28;117591;-68
2022/02/20 05:54:41;;;;;;;;;;;;;;;14.47;45.27;99772.09;4923857;28;126308;-68
2022/02/20 05:57:07;;;;;;;;;;;;;;;14.48;45.38;99781.03;4942005;28;110769;-68
2022/02/20 05:59:33;;;;;;;;;;;;;;;14.49;45.19;99793.50;4938939;28;127526;-64
2022/02/20 06:01:58;;;;;;;;;;;;;;;14.49;45.27;99785.38;4939726;28;115392;-63
2022/02/20 06:04:24;;;;;;;;;;;;;;;14.51;45.24;99799.44;4932961;28;127951;-68
2022/02/20 06:06:50;;;;;;;;;;;;;;;14.51;45.37;99802.16;4922727;28;126989;-64
2022/02/20 06:09:19;;;;;;;;;;;;;;;14.52;45.48;99809.16;4904912;28;98149;-64
2022/02/20 06:11:45;;;;;;;;;;;;;;;14.53;45.48;99804.53;4919912;28;100115;-64
2022/02/20 06:14:11;;;;;;;;;;;;;;;14.54;45.38;99812.38;4920671;28;128384;-67
2022/02/20 06:16:37;;;;;;;;;;;;;;;14.54;45.22;99811.53;4920948;28;127767;-64
2022/02/20 06:19:03;;;;;;;;;;;;;;;14.56;45.53;99812.06;4923237;28;129396;-64
2022/02/20 06:21:29;;;;;;;;;;;;;;;14.56;45.76;99818.28;4920975;28;117636;-68
2022/02/20 06:23:55;;;;;;;;;;;;;;;14.57;45.80;99828.00;4931857;28;128340;-68
2022/02/20 06:26:21;;;;;;;;;;;;;;;14.58;45.73;99834.22;4940789;28;128251;-63
2022/02/20 06:28:47;;;;;;;;;;;;;;;14.58;45.66;99832.34;4938886;28;127686;-63
2022/02/20 06:31:13;;;;;;;;;;;;;;;14.60;45.92;99840.16;4940783;28;97953;-67
2022/02/20 06:33:39;;;;;;;;;;;;;;;14.61;45.75;99836.34;4938947;28;98950;-64
2022/02/20 06:36:06;;;;;;;;;;;;;;;14.62;45.53;99841.47;4940712;28;99247;-66
2022/02/20 06:38:32;;;;;;;;;;;;;;;14.63;45.55;99842.25;4936369;28;122476;-64
2022/02/20 06:40:58;;;;;;;;;;;;;;;14.65;45.69;99846.25;4907614;28;118153;-64
2022/02/20 06:43:24;;;;;;;;;;;;;;;14.67;45.88;99849.47;4917218;28;117120;-64
2022/02/20 06:45:50;;;;;;;;;;;;;;;14.69;45.51;99854.56;4915466;28;115849;-64
2022/02/20 06:48:16;;;;;;;;;;;;;;;14.71;45.61;99861.28;4915128;28;126183;-67
2022/02/20 06:50:42;;;;;;;;;;;;;;;14.73;45.70;99867.19;4919166;28;118271;-67
2022/02/20 06:53:08;;;;;;;;;;;;;;;14.76;45.97;99873.94;4918166;28;98285;-64
2022/02/20 06:55:34;;;;;;;;;;;;;;;14.77;45.98;99883.66;4916011;28;128442;-64
2022/02/20 06:58:00;;;;;;;;;;;;;;;14.79;45.71;99884.16;4921144;28;107451;-67
2022/02/20 07:00:26;;;;;;;;;;;;;;;14.80;45.83;99887.69;4934401;28;117712;-68
2022/02/20 07:02:52;;;;;;;;;;;;;;;14.82;45.93;99907.97;4936816;28;119826;-68
2022/02/20 07:05:18;;;;;;;;;;;;;;;14.84;45.73;99899.50;4919032;28;129400;-68
2022/02/20 07:07:43;;;;;;;;;;;;;;;14.86;46.01;99897.31;4937326;28;127686;-68
2022/02/20 07:10:09;;;;;;;;;;;;;;;14.88;46.02;99909.44;4914224;28;115668;-64
2022/02/20 07:12:36;;;;;;;;;;;;;;;14.91;45.93;99908.81;4915078;28;121705;-68
2022/02/20 07:15:03;;;;;;;;;;;;;;;14.93;45.57;99911.22;4917964;28;98468;-68
2022/02/20 07:17:29;;;;;;;;;;;;;;;14.94;45.76;99921.78;4920777;28;105960;-68
2022/02/20 07:19:55;;;;;;;;;;;;;;;14.98;45.85;99911.91;4919071;28;101762;-67
2022/02/20 07:22:21;;;;;;;;;;;;;;;15.03;45.96;99927.25;4916938;28;99208;-64
2022/02/20 07:24:47;;;;;;;;;;;;;;;15.06;45.76;99928.56;4916684;28;128268;-68
2022/02/20 07:27:13;;;;;;;;;;;;;;;15.07;45.65;99933.66;4916978;28;98423;-67
2022/02/20 07:29:38;;;;;;;;;;;;;;;15.13;45.50;99945.19;4932539;28;116902;-68
2022/02/20 07:32:05;;;;;;;;;;;;;;;15.17;45.70;99936.13;4924974;28;127387;-64
2022/02/20 07:34:32;;;;;;;;;;;;;;;15.22;45.50;99948.78;4915184;28;98501;-64
2022/02/20 07:36:58;;;;;;;;;;;;;;;15.26;45.48;99941.63;4917776;28;98087;-64
2022/02/20 07:39:24;;;;;;;;;;;;;;;15.30;45.43;99949.94;4922882;28;118387;-64
2022/02/20 07:41:50;;;;;;;;;;;;;;;15.34;45.65;99959.88;4916063;28;127319;-67
2022/02/20 07:44:16;;;;;;;;;;;;;;;15.40;45.56;99960.53;4930402;28;128931;-68
2022/02/20 07:46:42;;;;;;;;;;;;;;;15.44;45.40;99965.03;4917825;28;127291;-64
2022/02/20 07:49:08;;;;;;;;;;;;;;;15.49;45.43;99977.69;4917297;28;116320;-67
2022/02/20 07:51:34;;;;;;;;;;;;;;;15.52;45.67;99968.88;4903862;28;128518;-67
2022/02/20 07:54:00;;;;;;;;;;;;;;;15.56;45.67;99975.34;4914603;28;127517;-67
2022/02/20 07:56:25;;;;;;;;;;;;;;;15.59;45.39;99982.03;4918162;28;98226;-67
2022/02/20 07:58:51;;;;;;;;;;;;;;;15.67;45.38;99989.44;4929112;28;98346;-67
2022/02/20 08:01:17;;;;;;;;;;;;;;;15.69;45.28;99982.59;4934342;28;128067;-64
2022/02/20 08:03:43;;;;;;;;;;;;;;;15.73;45.21;99995.56;4925262;28;99674;-64
2022/02/20 08:06:09;;;;;;;;;;;;;;;15.75;45.48;99988.69;4931643;28;128086;-66
2022/02/20 08:08:35;;;;;;;;;;;;;;;15.81;45.13;99995.59;4923007;28;98243;-67
2022/02/20 08:11:01;;;;;;;;;;;;;;;15.88;45.21;99990.50;4903326;28;99876;-67
2022/02/20 08:13:27;;;;;;;;;;;;;;;15.92;45.15;100010.53;4920677;28;124261;-63
2022/02/20 08:15:53;;;;;;;;;;;;;;;16.00;45.08;99997.28;4916895;28;126428;-64
2022/02/20 08:18:19;;;;;;;;;;;;;;;16.04;45.21;100006.41;4916731;28;98060;-67
2022/02/20 08:20:46;;;;;;;;;;;;;;;16.06;45.04;100021.25;4916205;28;125003;-64
2022/02/20 08:23:13;;;;;;;;;;;;;;;16.12;45.23;100019.22;4923390;28;98708;-67
2022/02/20 08:25:40;;;;;;;;;;;;;;;16.16;44.90;100010.13;4933234;28;98093;-67
2022/02/20 08:28:06;;;;;;;;;;;;;;;16.19;44.95;100012.22;4933853;28;97953;-64
2022/02/20 08:30:32;;;;;;;;;;;;;;;16.31;44.83;100016.22;4928661;28;110974;-64
2022/02/20 08:32:58;;;;;;;;;;;;;;;16.39;44.64;100021.69;4936399;28;127424;-67
2022/02/20 08:35:24;;;;;;;;;;;;;;;16.43;44.89;100024.59;4915613;28;127114;-64
2022/02/20 08:37:49;;;;;;;;;;;;;;;16.43;44.87;100019.16;4916268;28;97823;-64
2022/02/20 08:40:16;;;;;;;;;;;;;;;16.48;44.98;100026.34;4914868;28;128166;-67
2022/02/20 08:42:43;;;;;;;;;;;;;;;16.58;44.85;100015.94;4915681;28;126445;-64
2022/02/20 08:45:09;;;;;;;;;;;;;;;16.69;44.72;100033.56;4916001;28;98292;-67
2022/02/20 08:47:35;;;;;;;;;;;;;;;16.77;44.70;100025.78;4917610;28;106193;-67
2022/02/20 08:50:02;;;;;;;;;;;;;;;16.83;44.63;100038.13;4914153;28;107444;-67
2022/02/20 08:52:29;;;;;;;;;;;;;;;16.88;44.47;100037.97;4081761;28;10000379;-67
2022/02/20 08:54:55;;;;;;;;;;;;;;;16.94;44.65;100044.84;4926284;28;98286;-67
2022/02/20 08:57:21;;;;;;;;;;;;;;;16.96;44.47;100039.88;4935569;28;98332;-64
2022/02/20 08:59:49;;;;;;;;;;;;;;;17.03;44.38;100044.84;4933678;28;98252;-67
2022/02/20 09:02:14;;;;;;;;;;;;;;;17.24;44.01;100037.63;4913518;28;98485;-67
2022/02/20 09:04:40;;;;;;;;;;;;;;;17.57;43.77;100045.28;4918627;28;128047;-67
2022/02/20 09:07:07;;;;;;;;;;;;;;;17.99;43.31;100042.75;4917024;28;113553;-64
2022/02/20 09:09:33;;;;;;;;;;;;;;;18.66;42.77;100041.91;4919148;28;97892;-64
2022/02/20 09:11:59;;;;;;;;;;;;;;;19.02;42.55;100035.94;4923646;28;101215;-66
2022/02/20 09:14:25;;;;;;;;;;;;;;;19.21;42.51;100035.41;4937505;28;125568;-67
2022/02/20 09:16:51;;;;;;;;;;;;;;;19.25;42.86;100041.00;4937986;28;127255;-64
2022/02/20 09:19:17;;;;;;;;;;;;;;;19.36;42.83;100047.66;4938931;28;98359;-67
2022/02/20 09:21:43;;;;;;;;;;;;;;;19.73;42.27;100045.06;4936744;28;122547;-67
2022/02/20 09:24:09;;;;;;;;;;;;;;;19.90;42.27;100052.28;4938034;28;97925;-64
2022/02/20 09:26:35;;;;;;;;;;;;;;;20.18;42.02;100055.16;4936670;28;98411;-67
2022/02/20 09:29:01;;;;;;;;;;;;;;;20.23;42.16;100052.19;4938626;28;99430;-65
2022/02/20 09:31:27;;;;;;;;;;;;;;;20.18;42.32;100057.91;4938796;28;128000;-67
2022/02/20 09:33:53;;;;;;;;;;;;;;;20.46;42.15;100056.06;4952154;28;127513;-67
2022/02/20 09:36:19;;;;;;;;;;;;;;;20.48;42.15;100053.78;4937855;28;127239;-64
2022/02/20 09:38:44;;;;;;;;;;;;;;;21.59;40.88;100059.00;4936553;28;111184;-65
2022/02/20 09:41:11;;;;;;;;;;;;;;;21.75;41.17;100059.81;4936552;28;114796;-67
2022/02/20 09:43:39;;;;;;;;;;;;;;;22.40;40.71;100060.28;4929887;28;98222;-67
2022/02/20 09:46:05;;;;;;;;;;;;;;;22.94;40.52;100058.75;4936184;28;98361;-67
2022/02/20 09:48:31;;;;;;;;;;;;;;;23.60;40.29;100057.69;4937906;28;97792;-65
2022/02/20 09:50:59;;;;;;;;;;;;;;;23.76;40.10;100052.91;4937234;28;128365;-65
2022/02/20 09:53:25;;;;;;;;;;;;;;;23.33;41.22;100058.75;4908230;28;98496;-68
2022/02/20 09:55:51;;;;;;;;;;;;;;;23.09;41.61;100049.63;4916294;28;127648;-65
2022/02/20 09:58:18;;;;;;;;;;;;;;;22.73;41.93;100065.34;4917944;28;117685;-67
2022/02/20 10:00:57;;;;;;;;;;;;;;;23.37;40.91;100059.63;4917302;28;129222;-67
2022/02/20 10:03:30;;;;;;;;;;;;;;;23.21;40.99;100054.19;4917605;28;127035;-65
2022/02/20 10:05:56;;;;;;;;;;;;;;;23.17;41.16;100062.38;4921510;28;98083;-65
2022/02/20 10:08:22;;;;;;;;;;;;;;;22.82;41.38;100051.41;4937322;28;117767;-67
2022/02/20 10:10:48;;;;;;;;;;;;;;;22.70;41.72;100054.28;4898619;28;113114;-67
2022/02/20 10:13:24;;;;;;;;;;;;;;;22.58;41.69;100063.44;4914321;28;120220;-68
2022/02/20 10:15:50;;;;;;;;;;;;;;;22.97;41.11;100058.03;4917174;28;98664;-67
2022/02/20 10:18:17;;;;;;;;;;;;;;;23.77;39.90;100054.50;4914153;28;118450;-65
2022/02/20 10:20:44;;;;;;;;;;;;;;;24.28;39.02;100056.13;4918249;28;98912;-67
2022/02/20 10:23:14;;;;;;;;;;;;;;;24.56;39.06;100053.03;4918017;28;98320;-67
2022/02/20 10:25:41;;;;;;;;;;;;;;;24.45;38.92;100052.09;4919195;28;98586;-64
2022/02/20 10:28:07;;;;;;;;;;;;;;;24.59;38.65;100046.78;4917665;28;98458;-64
2022/02/20 10:30:33;;;;;;;;;;;;;;;24.68;38.97;100049.25;4918377;28;123811;-70
2022/02/20 10:33:05;;;;;;;;;;;;;;;24.66;39.01;100057.91;4918712;28;98524;-70
2022/02/20 10:35:35;;;;;;;;;;;;;;;24.78;39.36;100040.38;4932577;28;99687;-69
2022/02/20 10:38:07;;;;;;;;;;;;;;;25.03;39.31;100035.16;4915765;28;98063;-63
2022/02/20 10:40:33;;;;;;;;;;;;;;;24.96;39.46;100032.34;4930218;28;98486;-70
2022/02/20 10:43:04;;;;;;;;;;;;;;;24.65;39.96;100039.81;4916212;28;117794;-70
2022/02/20 10:45:35;;;;;;;;;;;;;;;24.55;40.51;100026.66;4915774;28;98976;-70
2022/02/20 10:48:05;;;;;;;;;;;;;;;24.87;39.85;100031.81;4917908;28;97951;-70
2022/02/20 10:50:32;;;;;;;;;;;;;;;24.93;39.99;100019.28;4918460;28;98494;-64
2022/02/20 10:53:19;;;;;;;;;;;;;;;24.35;40.99;100014.16;4928937;28;99717;-70
2022/02/20 10:55:47;;;;;;;;;;;;;;;23.80;42.12;100021.91;4918620;28;98539;-64
2022/02/20 10:58:26;;;;;;;;;;;;;;;23.34;42.53;100014.38;4933079;28;97955;-64
2022/02/20 11:00:59;;;;;;;;;;;;;;;23.02;42.82;100011.81;4918364;28;98379;-70
2022/02/20 11:03:26;;;;;;;;;;;;;;;22.75;43.32;100016.34;4935091;28;110150;-64
2022/02/20 11:05:53;;;;;;;;;;;;;;;22.45;43.67;100007.84;4918405;28;98422;-70
2022/02/20 11:08:23;;;;;;;;;;;;;;;22.20;43.90;100004.50;4936697;28;98230;-64
2022/02/20 11:10:49;;;;;;;;;;;;;;;21.97;44.18;100001.59;4934074;28;99230;-69
2022/02/20 11:13:16;;;;;;;;;;;;;;;21.69;44.46;99990.72;4933990;28;127039;-69
2022/02/20 11:15:43;;;;;;;;;;;;;;;21.44;44.59;99987.31;4932601;28;98143;-63
2022/02/20 11:18:11;;;;;;;;;;;;;;;21.24;44.90;99980.88;4933154;28;97997;-70
2022/02/20 11:20:39;;;;;;;;;;;;;;;21.08;44.93;99975.38;4936821;28;99064;-70
2022/02/20 11:23:06;;;;;;;;;;;;;;;20.91;45.17;99967.47;4931544;28;98973;-70
2022/02/20 11:25:32;;;;;;;;;;;;;;;20.75;45.21;99964.66;4918160;28;98147;-63
2022/02/20 11:27:59;;;;;;;;;;;;;;;20.57;45.11;99971.56;4917810;28;109016;-63
2022/02/20 11:30:25;;;;;;;;;;;;;;;20.42;45.45;99969.50;4936741;28;99290;-69
2022/02/20 11:32:51;;;;;;;;;;;;;;;20.24;45.56;99961.56;4937304;28;120707;-63
2022/02/20 11:35:19;;;;;;;;;;;;;;;20.12;45.48;99958.81;4916318;28;99290;-64
2022/02/20 11:37:50;;;;;;;;;;;;;;;19.98;45.68;99955.66;4918279;28;98282;-69
2022/02/20 11:40:16;;;;;;;;;;;;;;;19.83;45.68;99963.38;4921339;28;98765;-70
2022/02/20 11:43:01;;;;;;;;;;;;;;;19.75;45.84;99945.16;4936566;28;98512;-63
2022/02/20 11:45:28;;;;;;;;;;;;;;;19.65;45.82;99955.75;4924222;28;98224;-69
2022/02/20 11:48:04;;;;;;;;;;;;;;;19.52;46.08;99943.97;4921506;28;117855;-70
2022/02/20 11:50:31;;;;;;;;;;;;;;;19.41;46.27;99943.59;4916841;28;105489;-63
2022/02/20 11:52:58;;;;;;;;;;;;;;;19.32;46.14;99932.78;4919651;28;98574;-69
2022/02/20 11:55:31;;;;;;;;;;;;;;;19.25;46.42;99929.78;4932289;28;122348;-63
2022/02/20 11:58:13;;;;;;;;;;;;;;;19.22;46.32;99926.97;4917458;28;98250;-69
2022/02/20 12:00:54;;;;;;;;;;;;;;;19.19;46.36;99909.31;4916676;28;98281;-69
2022/02/20 12:03:20;;;;;;;;;;;;;;;19.14;46.50;99901.34;4041031;28;10000986;-70
2022/02/20 12:06:14;;;;;;;;;;;;;;;19.04;46.57;99899.81;4914219;28;98578;-69
2022/02/20 12:08:45;;;;;;;;;;;;;;;18.93;46.73;99895.13;4906780;28;98695;-63
2022/02/20 12:11:19;;;;;;;;;;;;;;;18.86;46.65;99887.47;4915846;28;99345;-63
2022/02/20 12:13:53;;;;;;;;;;;;;;;18.77;46.91;99886.75;4934614;28;97786;-69
2022/02/20 12:16:22;;;;;;;;;;;;;;;18.70;46.83;99884.56;4918835;28;98588;-69
2022/02/20 12:19:12;;;;;;;;;;;;;;;18.67;46.97;99878.94;4930040;28;125278;-63
2022/02/20 12:21:55;;;;;;;;;;;;;;;18.64;46.93;99878.50;4935301;28;98550;-69
2022/02/20 12:24:23;;;;;;;;;;;;;;;18.62;47.09;99867.09;4916508;28;98727;-69
2022/02/20 12:26:54;;;;;;;;;;;;;;;18.61;47.08;99856.53;4916062;28;128180;-63
2022/02/20 12:29:30;;;;;;;;;;;;;;;18.58;47.22;99855.25;4933794;28;100673;-63
2022/02/20 12:32:13;;;;;;;;;;;;;;;18.58;47.16;99846.28;4922321;28;125736;-64
2022/02/20 12:34:52;;;;;;;;;;;;;;;18.54;47.33;99842.63;4916765;28;98188;-63
2022/02/20 12:37:26;;;;;;;;;;;;;;;18.49;47.30;99834.66;4918410;28;98205;-63